SBGL/GIG METAR and TAF weather

Enter ICAO airport designator
Station Type Date Time Source
SBGL METAR 2021/05/15 01:00 UTC NOAA

SBGL 150100Z 09006KT 9999 SCT020 BKN040 21/17 Q1020


Station Type Date Time Source
SBGL Decoded METAR 2021/05/15 01:00 UTC NOAA

Galeao, Brazil (SBGL) 22-49S 043-15W 42M
May 14, 2021 - 09:00 PM EDT / 2021.05.15 0100 UTC
Wind: from the E (090 degrees) at 7 MPH (6 KT):0
Visibility: greater than 7 mile(s):0
Sky conditions: mostly cloudy
Temperature: 69 F (21 C)
Dew Point: 62 F (17 C)
Relative Humidity: 77%
Pressure (altimeter): 30.12 in. Hg (1020 hPa)
ob: SBGL 150100Z 09006KT 9999 SCT020 BKN040 21/17 Q1020
cycle: 1

Station Type Date Time Source
SBGL TAF 2021/05/15 00:00 UTC NOAA

TAF SBGL 142107Z 1500/1606 08005KT 9999 SCT020 TN18/1508Z TX25/1516Z
BECMG 1506/1508 32005KT
BECMG 1512/1514 06005KT
BECMG 1515/1517 23010KT
BECMG 1518/1520 14010KT
BECMG 1522/1524 08005KT
RMK PHQ

Example: see airport list